Time;durP1;ratioP1;P1;durP2;ratioP2;P2;SDS_P1;SDS_P2;PMS_P1;PMS_P2;Temp;Humidity;BMP_temperature;BMP_pressure;BME280_temperature;BME280_humidity;BME280_pressure;Samples;Min_cycle;Max_cycle;Signal;HPM_P1;HPM_P2
2022/09/23 00:01:02;;;;;;;6.00;5.13;;;17.90;68.80;;;;;;5036657;28;20078;-76
2022/09/23 00:03:29;;;;;;;5.93;5.22;;;17.90;68.90;;;;;;5028659;28;20047;-76
2022/09/23 00:05:57;;;;;;;4.63;4.22;;;17.90;68.90;;;;;;5047390;28;20397;-76
2022/09/23 00:08:23;;;;;;;5.65;5.15;;;17.90;69.10;;;;;;5021480;28;20357;-75
2022/09/23 00:10:50;;;;;;;5.13;4.68;;;17.90;69.10;;;;;;5040733;28;20029;-75
2022/09/23 00:13:16;;;;;;;5.55;4.85;;;17.90;69.20;;;;;;5038560;28;20056;-77
2022/09/23 00:15:42;;;;;;;5.50;4.97;;;17.90;69.20;;;;;;5027259;28;20595;-76
2022/09/23 00:18:08;;;;;;;5.13;4.72;;;17.90;69.30;;;;;;5045349;28;20025;-77
2022/09/23 00:20:35;;;;;;;4.82;4.28;;;17.80;69.20;;;;;;5035037;28;20051;-76
2022/09/23 00:23:01;;;;;;;5.80;5.20;;;17.80;69.30;;;;;;5036335;28;20036;-76
2022/09/23 00:25:31;;;;;;;5.72;5.22;;;17.80;69.30;;;;;;5038674;28;20017;-77
2022/09/23 00:27:57;;;;;;;4.80;4.40;;;17.80;69.40;;;;;;5040097;28;20040;-77
2022/09/23 00:30:23;;;;;;;4.40;4.00;;;17.70;69.30;;;;;;5070509;28;20053;-75
2022/09/23 00:32:51;;;;;;;4.38;4.07;;;17.70;69.40;;;;;;5069628;28;20079;-77
2022/09/23 00:35:17;;;;;;;4.78;4.38;;;17.70;69.50;;;;;;5057817;28;20029;-76
2022/09/23 00:37:43;;;;;;;4.70;4.22;;;17.70;69.60;;;;;;5038466;28;20120;-75
2022/09/23 00:40:11;;;;;;;5.25;4.82;;;17.60;69.50;;;;;;5053957;28;20136;-76
2022/09/23 00:42:37;;;;;;;4.60;4.20;;;17.60;69.60;;;;;;5032878;28;20035;-76
2022/09/23 00:45:03;;;;;;;4.32;4.03;;;17.70;69.80;;;;;;5038285;28;20034;-77
2022/09/23 00:47:51;;;;;;;4.47;4.07;;;17.60;69.70;;;;;;5042508;28;20029;-77
2022/09/23 00:50:26;;;;;;;4.57;4.18;;;17.60;69.90;;;;;;5038242;28;20029;-76
2022/09/23 00:52:55;;;;;;;4.53;4.22;;;17.60;69.80;;;;;;5050205;28;20181;-76
2022/09/23 00:55:36;;;;;;;4.75;4.32;;;17.60;69.90;;;;;;5031593;28;20049;-77
2022/09/23 00:58:04;;;;;;;4.55;4.13;;;17.50;69.80;;;;;;5018130;28;20024;-76
2022/09/23 01:00:33;;;;;;;4.47;4.07;;;17.50;69.80;;;;;;5050082;28;20049;-77
2022/09/23 01:03:00;;;;;;;5.88;4.65;;;17.50;69.90;;;;;;5048882;28;20041;-77
2022/09/23 01:05:26;;;;;;;5.28;4.88;;;17.50;70.00;;;;;;5041031;28;20037;-76
2022/09/23 01:07:57;;;;;;;5.20;4.80;;;17.50;70.00;;;;;;5028375;28;20029;-76
2022/09/23 01:10:26;;;;;;;4.85;4.35;;;17.50;70.20;;;;;;5031493;28;20399;-77
2022/09/23 01:13:20;;;;;;;4.72;4.35;;;17.50;70.20;;;;;;5049857;28;20031;-76
2022/09/23 01:16:08;;;;;;;4.57;4.18;;;17.50;70.40;;;;;;5044486;28;20025;-75
2022/09/23 01:18:46;;;;;;;4.88;4.47;;;17.50;70.30;;;;;;5035675;28;20030;-76
2022/09/23 01:21:35;;;;;;;4.60;4.20;;;17.50;70.30;;;;;;5049555;28;20063;-76
2022/09/23 01:24:13;;;;;;;5.03;4.63;;;17.50;70.50;;;;;;5050510;28;20493;-76
2022/09/23 01:26:45;;;;;;;4.60;4.20;;;17.50;71.00;;;;;;5048843;28;20526;-76
2022/09/23 01:29:18;;;;;;;4.55;4.18;;;17.50;70.40;;;;;;5036573;28;20033;-75
2022/09/23 01:31:56;;;;;;;4.40;4.03;;;17.50;70.50;;;;;;5048550;28;20090;-75
2022/09/23 01:34:35;;;;;;;4.63;4.18;;;17.50;70.50;;;;;;5033052;28;20710;-75
2022/09/23 01:37:17;;;;;;;4.82;4.43;;;17.50;70.60;;;;;;5036268;28;20484;-76
2022/09/23 01:40:04;;;;;;;4.68;4.22;;;17.50;70.70;;;;;;5048279;28;20045;-76
2022/09/23 01:42:35;;;;;;;4.75;4.35;;;17.50;70.60;;;;;;5036892;28;20401;-76
2022/09/23 01:45:15;;;;;;;4.65;4.30;;;17.50;70.70;;;;;;5027489;28;20414;-77
2022/09/23 01:47:54;;;;;;;5.78;4.32;;;17.50;70.80;;;;;;5036613;28;20064;-77
2022/09/23 01:53:27;;;;;;;4.22;3.88;;;17.50;70.80;;;;;;5044603;28;20045;-76
2022/09/23 01:55:57;;;;;;;5.20;4.05;;;17.50;70.90;;;;;;5053247;28;20036;-75
2022/09/23 01:58:25;;;;;;;4.50;4.10;;;17.50;70.90;;;;;;5050786;28;20047;-76
2022/09/23 02:01:15;;;;;;;4.15;3.65;;;17.50;70.90;;;;;;5051429;28;20102;-75
2022/09/23 02:03:44;;;;;;;4.20;3.80;;;17.50;71.20;;;;;;5039683;28;20025;-76
2022/09/23 02:06:32;;;;;;;4.78;4.38;;;17.50;71.00;;;;;;5039971;28;20037;-76
2022/09/23 02:09:08;;;;;;;5.63;3.90;;;17.50;71.10;;;;;;5051559;28;20396;-76
2022/09/23 02:11:36;;;;;;;4.43;4.03;;;17.50;71.10;;;;;;5038719;28;20097;-76
2022/09/23 02:14:29;;;;;;;4.40;4.07;;;17.50;71.60;;;;;;5051647;28;20021;-75
2022/09/23 02:17:03;;;;;;;5.32;4.82;;;17.50;71.40;;;;;;5046851;28;20453;-76
2022/09/23 02:19:40;;;;;;;4.93;4.50;;;17.50;71.30;;;;;;5044449;28;20458;-76
2022/09/23 02:22:27;;;;;;;5.75;5.20;;;17.50;71.30;;;;;;5052654;28;20388;-76
2022/09/23 02:24:56;;;;;;;5.40;4.90;;;17.50;71.50;;;;;;5049086;28;20025;-76
2022/09/23 02:27:24;;;;;;;4.88;4.47;;;17.50;71.40;;;;;;5047976;28;20021;-77
2022/09/23 02:29:59;;;;;;;4.60;4.07;;;17.50;71.40;;;;;;5052730;28;20043;-76
2022/09/23 02:32:34;;;;;;;5.32;4.82;;;17.50;71.60;;;;;;5049192;28;20060;-76
2022/09/23 02:35:14;;;;;;;5.38;4.97;;;17.50;71.60;;;;;;5046254;28;20441;-75
2022/09/23 02:38:03;;;;;;;5.15;4.65;;;17.50;71.70;;;;;;5051733;28;20033;-76
2022/09/23 02:40:40;;;;;;;5.07;4.57;;;17.50;71.80;;;;;;5022257;28;20057;-76
2022/09/23 02:43:26;;;;;;;4.65;4.28;;;17.50;71.70;;;;;;5052229;28;20495;-74
2022/09/23 02:45:52;;;;;;;5.25;4.85;;;17.50;71.90;;;;;;5035004;28;20029;-75
2022/09/23 02:48:29;;;;;;;5.57;5.07;;;17.50;71.70;;;;;;5049131;28;20036;-77
2022/09/23 02:50:56;;;;;;;5.95;5.35;;;17.50;71.80;;;;;;5051662;28;20101;-76
2022/09/23 02:53:24;;;;;;;4.80;4.43;;;17.50;71.80;;;;;;5048436;28;20112;-75
2022/09/23 02:55:50;;;;;;;5.10;4.47;;;17.50;71.80;;;;;;5045020;28;20167;-76
2022/09/23 02:58:17;;;;;;;4.20;3.90;;;17.50;71.90;;;;;;5050784;28;20040;-75
2022/09/23 03:01:22;;;;;;;4.00;3.70;;;17.50;71.90;;;;;;5045793;28;20033;-74
2022/09/23 03:04:24;;;;;;;4.72;3.67;;;17.50;72.10;;;;;;5048084;28;20048;-77
2022/09/23 03:07:24;;;;;;;4.07;3.40;;;17.50;72.00;;;;;;5033719;28;20094;-76
2022/09/23 03:09:56;;;;;;;4.72;3.38;;;17.50;72.00;;;;;;5052775;28;20434;-76
2022/09/23 03:12:51;;;;;;;2.92;2.70;;;17.50;71.90;;;;;;5049773;28;20033;-77
2022/09/23 03:15:21;;;;;;;2.95;2.70;;;17.50;72.00;;;;;;5047774;28;20083;-76
2022/09/23 03:18:07;;;;;;;3.55;2.95;;;17.50;72.00;;;;;;5048191;28;20032;-76
2022/09/23 03:20:41;;;;;;;2.65;2.42;;;17.50;72.00;;;;;;5034123;28;20041;-75
2022/09/23 03:23:11;;;;;;;3.10;2.75;;;17.40;71.90;;;;;;5046481;28;20449;-76
2022/09/23 03:25:40;;;;;;;2.45;2.15;;;17.40;71.90;;;;;;5035389;28;20044;-75
2022/09/23 03:28:07;;;;;;;2.25;2.05;;;17.40;72.00;;;;;;5050254;28;20056;-76
2022/09/23 03:30:35;;;;;;;2.83;2.20;;;17.40;72.00;;;;;;5049320;28;20025;-76
2022/09/23 03:33:05;;;;;;;2.47;2.03;;;17.40;72.00;;;;;;5031571;28;20034;-76
2022/09/23 03:36:48;;;;;;;2.03;1.83;;;17.40;72.10;;;;;;5049515;28;20120;-75
2022/09/23 03:38:24;;;;;;;2.00;1.80;;;17.40;72.10;;;;;;5049702;28;20044;-76
2022/09/23 03:40:53;;;;;;;2.50;2.00;;;17.40;72.10;;;;;;5042688;28;20042;-76
2022/09/23 03:43:19;;;;;;;2.90;1.95;;;17.40;72.10;;;;;;5041094;28;20034;-76
2022/09/23 03:45:45;;;;;;;2.25;1.92;;;17.40;72.10;;;;;;5032729;28;20036;-76
2022/09/23 03:48:13;;;;;;;4.10;1.80;;;17.30;71.90;;;;;;5046591;28;20017;-76
2022/09/23 03:50:40;;;;;;;2.05;1.80;;;17.30;72.00;;;;;;5048791;28;20037;-77
2022/09/23 03:53:06;;;;;;;2.10;1.95;;;17.30;72.00;;;;;;5031045;28;20122;-76
2022/09/23 03:55:33;;;;;;;2.95;1.85;;;17.30;72.10;;;;;;5049489;28;20496;-76
2022/09/23 03:58:01;;;;;;;2.40;2.05;;;17.30;72.10;;;;;;5034622;28;20148;-76
2022/09/23 04:00:27;;;;;;;1.70;1.50;;;17.30;72.10;;;;;;5049480;28;20041;-76
2022/09/23 04:02:52;;;;;;;2.30;1.95;;;17.30;72.10;;;;;;5055349;28;20502;-76
2022/09/23 04:05:18;;;;;;;1.85;1.65;;;17.30;72.10;;;;;;5057680;28;20029;-76
2022/09/23 04:07:45;;;;;;;2.17;1.98;;;17.30;72.10;;;;;;5054918;28;20800;-76
2022/09/23 04:10:11;;;;;;;1.67;1.50;;;17.30;72.10;;;;;;5047919;28;20038;-75
2022/09/23 04:12:37;;;;;;;2.13;1.92;;;17.20;71.90;;;;;;5051880;28;20029;-75
2022/09/23 04:15:03;;;;;;;6.03;3.38;;;17.30;72.10;;;;;;5055297;28;20033;-76
2022/09/23 04:17:29;;;;;;;1.90;1.80;;;17.30;72.00;;;;;;5040348;28;20022;-77
2022/09/23 04:19:57;;;;;;;2.55;1.85;;;17.30;72.00;;;;;;5038173;28;20041;-76
2022/09/23 04:22:23;;;;;;;4.38;2.83;;;17.20;71.80;;;;;;5055866;28;20078;-76
2022/09/23 04:24:49;;;;;;;3.00;2.38;;;17.20;71.90;;;;;;5048694;28;20043;-75
2022/09/23 04:27:15;;;;;;;2.85;2.33;;;17.20;71.90;;;;;;5055725;28;20392;-76
2022/09/23 04:29:41;;;;;;;2.40;2.20;;;17.20;71.90;;;;;;5058323;28;20032;-77
2022/09/23 04:32:07;;;;;;;2.08;1.85;;;17.20;71.90;;;;;;5054528;28;21131;-76
2022/09/23 04:34:33;;;;;;;2.38;2.17;;;17.20;72.00;;;;;;5052210;28;20430;-76
2022/09/23 04:37:01;;;;;;;2.22;2.03;;;17.20;71.90;;;;;;5050648;28;20036;-76
2022/09/23 04:39:27;;;;;;;2.05;1.85;;;17.10;71.80;;;;;;5057223;28;20178;-76
2022/09/23 04:41:53;;;;;;;2.15;2.03;;;17.10;71.80;;;;;;5056415;28;20048;-75
2022/09/23 04:44:20;;;;;;;2.25;2.05;;;17.10;71.80;;;;;;5055770;28;20538;-76
2022/09/23 04:46:46;;;;;;;2.45;1.85;;;17.10;71.80;;;;;;5050304;28;20534;-76
2022/09/23 04:49:14;;;;;;;2.63;1.95;;;17.10;71.90;;;;;;5055816;28;20021;-76
2022/09/23 04:51:42;;;;;;;2.45;2.13;;;17.10;71.90;;;;;;5072859;28;20049;-76
2022/09/23 04:54:10;;;;;;;2.72;1.98;;;17.00;71.70;;;;;;5064678;28;20057;-77
2022/09/23 04:56:36;;;;;;;2.30;2.10;;;17.00;71.70;;;;;;5062785;28;20033;-76
2022/09/23 04:59:06;;;;;;;2.03;1.83;;;17.00;71.70;;;;;;5054435;28;20104;-76
2022/09/23 05:01:33;;;;;;;1.75;1.65;;;17.00;71.70;;;;;;5062509;28;20174;-76
2022/09/23 05:04:12;;;;;;;2.20;2.00;;;17.00;71.70;;;;;;5060403;28;20231;-77
2022/09/23 05:06:38;;;;;;;2.38;2.17;;;17.00;71.80;;;;;;5049801;28;20029;-76
2022/09/23 05:09:06;;;;;;;3.20;2.63;;;17.00;71.70;;;;;;5035750;28;20033;-76
2022/09/23 05:11:33;;;;;;;2.47;2.28;;;17.00;71.70;;;;;;5035750;28;20481;-77
2022/09/23 05:13:59;;;;;;;3.35;2.97;;;17.00;71.70;;;;;;5038647;28;20210;-77
2022/09/23 05:16:26;;;;;;;3.28;3.05;;;17.00;71.80;;;;;;5048358;28;20025;-77
2022/09/23 05:18:53;;;;;;;3.42;3.13;;;16.90;71.60;;;;;;5038219;28;20033;-76
2022/09/23 05:21:22;;;;;;;3.80;3.10;;;16.90;71.60;;;;;;5048081;28;20045;-76
2022/09/23 05:23:52;;;;;;;4.18;3.78;;;16.90;71.70;;;;;;5050665;28;20021;-78
2022/09/23 05:26:18;;;;;;;3.63;3.33;;;16.90;71.70;;;;;;5049255;28;20396;-77
2022/09/23 05:28:44;;;;;;;4.55;4.15;;;16.80;71.50;;;;;;5043344;28;20029;-77
2022/09/23 05:31:13;;;;;;;4.03;3.72;;;16.80;71.60;;;;;;5050668;28;20124;-78
2022/09/23 05:33:40;;;;;;;4.63;4.32;;;16.80;71.60;;;;;;5056367;28;20025;-77
2022/09/23 05:36:06;;;;;;;4.63;4.22;;;16.80;71.50;;;;;;5044148;28;20022;-76
2022/09/23 05:38:33;;;;;;;4.82;4.40;;;16.80;71.50;;;;;;5045667;28;20492;-77
2022/09/23 05:41:04;;;;;;;5.10;4.70;;;16.80;71.60;;;;;;5050347;28;20040;-75
2022/09/23 05:43:31;;;;;;;6.43;5.07;;;16.70;71.50;;;;;;5048801;28;20445;-78
2022/09/23 05:46:06;;;;;;;5.80;5.40;;;16.80;71.70;;;;;;5048719;28;20507;-77
2022/09/23 05:48:33;;;;;;;7.03;6.32;;;16.80;71.70;;;;;;5037302;28;20018;-77
2022/09/23 05:51:01;;;;;;;5.82;5.15;;;16.70;71.50;;;;;;5041105;28;20041;-77
2022/09/23 05:53:28;;;;;;;6.80;6.18;;;16.70;71.50;;;;;;5037518;28;20029;-80
2022/09/23 05:55:55;;;;;;;7.40;6.13;;;16.70;71.50;;;;;;5024284;28;20033;-76
2022/09/23 05:58:23;;;;;;;6.97;6.38;;;16.70;71.50;;;;;;5041843;28;20049;-77
2022/09/23 06:00:50;;;;;;;7.45;6.72;;;16.70;71.50;;;;;;5045106;28;20430;-77
2022/09/23 06:03:19;;;;;;;7.63;7.00;;;16.70;71.50;;;;;;5043614;28;20033;-79
2022/09/23 06:05:47;;;;;;;8.70;7.93;;;16.70;72.00;;;;;;5047549;28;20373;-76
2022/09/23 06:08:13;;;;;;;7.82;6.95;;;16.70;71.50;;;;;;5034462;28;20101;-76
2022/09/23 06:10:41;;;;;;;8.05;6.78;;;16.70;71.50;;;;;;5015083;28;20029;-78
2022/09/23 06:13:08;;;;;;;7.75;6.93;;;16.60;71.30;;;;;;5047077;28;20025;-77
2022/09/23 06:15:35;;;;;;;7.43;6.65;;;16.60;71.30;;;;;;5040959;28;20044;-77
2022/09/23 06:18:01;;;;;;;9.05;7.60;;;16.60;71.30;;;;;;5046222;28;20045;-78
2022/09/23 06:20:28;;;;;;;7.78;7.18;;;16.70;71.50;;;;;;5036649;28;20037;-77
2022/09/23 06:22:56;;;;;;;8.00;7.35;;;16.60;71.30;;;;;;5023640;28;20190;-77
2022/09/23 06:25:23;;;;;;;8.80;7.93;;;16.60;71.30;;;;;;5043192;28;20140;-76
2022/09/23 06:27:54;;;;;;;8.85;8.15;;;16.60;71.30;;;;;;5015688;28;20026;-78
2022/09/23 06:30:21;;;;;;;9.60;8.75;;;16.60;71.30;;;;;;5039820;28;20025;-77
2022/09/23 06:32:50;;;;;;;9.35;8.48;;;16.60;71.30;;;;;;5048467;28;20376;-77
2022/09/23 06:35:22;;;;;;;9.52;8.63;;;16.60;71.20;;;;;;5030774;28;20041;-76
2022/09/23 06:37:48;;;;;;;10.20;9.30;;;16.60;71.20;;;;;;5045431;28;20021;-79
2022/09/23 06:40:14;;;;;;;10.15;9.15;;;16.50;71.00;;;;;;5058310;28;20045;-78
2022/09/23 06:42:41;;;;;;;10.88;9.88;;;16.60;71.20;;;;;;5049455;28;20031;-79
2022/09/23 06:45:11;;;;;;;12.18;10.98;;;16.60;71.10;;;;;;5045831;28;20024;-78
2022/09/23 06:47:39;;;;;;;10.95;9.90;;;16.50;71.00;;;;;;5041776;28;20039;-78
2022/09/23 06:50:06;;;;;;;13.52;12.15;;;16.50;71.00;;;;;;5034512;28;20017;-79
2022/09/23 06:52:33;;;;;;;12.90;11.70;;;16.60;71.20;;;;;;5049117;28;20041;-79
2022/09/23 06:54:59;;;;;;;17.20;12.40;;;16.50;70.90;;;;;;5043461;28;20029;-79
2022/09/23 06:57:29;;;;;;;15.02;13.45;;;16.50;70.90;;;;;;5040689;28;20033;-78
2022/09/23 06:59:57;;;;;;;14.52;13.02;;;16.60;71.00;;;;;;5042056;28;20051;-78
2022/09/23 07:02:25;;;;;;;15.68;14.05;;;16.60;71.00;;;;;;5043613;28;20035;-79
2022/09/23 07:04:52;;;;;;;14.68;13.23;;;16.60;70.90;;;;;;5052814;28;20032;-78
2022/09/23 07:07:17;;;;;;;15.25;13.73;;;16.70;71.00;;;;;;5019194;28;20053;-79
2022/09/23 07:09:45;;;;;;;15.95;14.43;;;16.70;70.80;;;;;;5046440;28;20102;-79
2022/09/23 07:12:11;;;;;;;17.33;15.48;;;16.80;70.90;;;;;;5047430;28;20045;-78
2022/09/23 07:14:38;;;;;;;18.75;16.38;;;16.80;70.80;;;;;;5053041;28;20041;-77
2022/09/23 07:17:04;;;;;;;17.85;15.93;;;16.80;70.70;;;;;;5040966;28;20025;-76
2022/09/23 07:19:30;;;;;;;19.52;17.48;;;16.80;70.60;;;;;;5040538;28;20120;-78
2022/09/23 07:21:56;;;;;;;17.33;15.52;;;16.90;70.60;;;;;;5047642;28;20045;-77
2022/09/23 07:24:22;;;;;;;17.35;15.63;;;16.90;70.50;;;;;;5047248;28;20048;-78
2022/09/23 07:26:48;;;;;;;18.42;16.58;;;17.00;70.50;;;;;;5045873;28;20431;-76
2022/09/23 07:29:14;;;;;;;17.10;15.43;;;17.00;70.40;;;;;;5029652;28;20025;-77
2022/09/23 07:31:41;;;;;;;17.17;15.20;;;17.10;70.50;;;;;;5013108;28;20037;-78
2022/09/23 07:34:10;;;;;;;19.15;17.15;;;17.10;70.50;;;;;;5023397;28;20521;-75
2022/09/23 07:36:39;;;;;;;18.30;16.38;;;17.20;70.50;;;;;;5046108;28;20061;-78
2022/09/23 07:39:10;;;;;;;18.58;16.70;;;17.20;70.50;;;;;;5045659;28;20025;-78
2022/09/23 07:41:36;;;;;;;18.88;17.05;;;17.30;70.40;;;;;;5040456;28;20041;-77
2022/09/23 07:44:05;;;;;;;36.45;19.30;;;17.30;70.30;;;;;;5046837;28;20283;-78
2022/09/23 07:46:34;;;;;;;19.15;17.20;;;17.40;70.30;;;;;;5043781;28;20032;-77
2022/09/23 07:49:02;;;;;;;21.15;18.42;;;17.40;70.20;;;;;;5036606;28;20031;-78
2022/09/23 07:51:30;;;;;;;19.65;17.52;;;17.50;70.20;;;;;;5046345;28;20053;-77
2022/09/23 07:53:57;;;;;;;18.98;16.98;;;17.50;70.10;;;;;;5048309;28;20054;-78
2022/09/23 07:56:28;;;;;;;18.27;16.52;;;17.60;70.10;;;;;;5044151;28;20033;-78
2022/09/23 07:59:02;;;;;;;20.23;17.20;;;17.60;70.00;;;;;;5039591;28;20059;-77
2022/09/23 08:01:35;;;;;;;19.50;16.70;;;17.70;70.00;;;;;;5051131;28;20522;-83
2022/09/23 08:04:23;;;;;;;19.02;17.08;;;17.80;70.00;;;;;;5031459;28;20062;-76
2022/09/23 08:06:52;;;;;;;18.70;16.80;;;17.80;69.80;;;;;;5029502;28;20525;-77
2022/09/23 08:09:22;;;;;;;16.60;14.93;;;17.90;69.70;;;;;;5043877;28;20033;-77
2022/09/23 08:11:49;;;;;;;18.00;15.45;;;18.00;69.60;;;;;;5047336;28;20086;-77
2022/09/23 08:14:17;;;;;;;16.20;14.57;;;18.00;69.40;;;;;;5046691;28;20030;-76
2022/09/23 08:16:46;;;;;;;15.32;13.85;;;18.00;69.30;;;;;;5021228;28;20118;-77
2022/09/23 08:19:13;;;;;;;17.88;15.27;;;18.00;69.20;;;;;;5045142;28;20025;-77
2022/09/23 08:21:40;;;;;;;16.10;14.48;;;18.10;69.40;;;;;;5032512;28;20057;-77
2022/09/23 08:24:18;;;;;;;15.15;12.90;;;18.10;69.40;;;;;;5040778;28;20056;-76
2022/09/23 08:26:45;;;;;;;11.82;9.27;;;18.10;69.40;;;;;;5030555;28;20046;-76
2022/09/23 08:29:14;;;;;;;8.88;7.97;;;18.10;69.30;;;;;;5047076;28;20029;-77
2022/09/23 08:31:41;;;;;;;10.85;6.72;;;18.20;69.40;;;;;;5048919;28;20025;-77
2022/09/23 08:34:07;;;;;;;9.02;6.55;;;18.20;69.20;;;;;;5043778;28;20039;-78
2022/09/23 08:36:33;;;;;;;8.80;5.40;;;18.30;69.20;;;;;;5049545;28;20052;-76
2022/09/23 08:38:59;;;;;;;6.00;4.82;;;18.30;69.00;;;;;;5041748;28;20029;-77
2022/09/23 08:41:37;;;;;;;8.02;4.13;;;18.40;69.00;;;;;;5050802;28;20045;-76
2022/09/23 08:44:28;;;;;;;7.13;4.43;;;18.50;68.90;;;;;;5034458;28;20032;-77
2022/09/23 08:47:20;;;;;;;7.70;3.03;;;18.60;68.80;;;;;;5045200;28;20067;-77
2022/09/23 08:50:12;;;;;;;4.97;2.50;;;18.70;68.50;;;;;;5038141;28;20037;-77
2022/09/23 08:52:48;;;;;;;5.25;2.00;;;18.90;68.50;;;;;;5032591;28;20029;-77
2022/09/23 08:55:15;;;;;;;5.57;2.08;;;19.00;68.20;;;;;;5044615;28;20033;-77
2022/09/23 08:58:03;;;;;;;7.38;1.70;;;19.10;68.10;;;;;;5050287;28;20098;-78
2022/09/23 09:00:40;;;;;;;4.43;1.80;;;19.20;67.80;;;;;;5050677;28;20290;-76
2022/09/23 09:03:31;;;;;;;4.60;1.05;;;19.30;67.60;;;;;;5043139;28;20033;-77
2022/09/23 09:05:57;;;;;;;6.00;2.53;;;19.30;67.20;;;;;;5044947;28;20032;-76
2022/09/23 09:08:35;;;;;;;4.13;1.50;;;19.50;67.30;;;;;;5048166;28;20033;-76
2022/09/23 09:11:02;;;;;;;6.95;1.85;;;19.50;66.60;;;;;;5050435;28;20121;-76
2022/09/23 09:13:32;;;;;;;5.45;1.27;;;19.60;66.50;;;;;;5051091;28;20036;-77
2022/09/23 09:16:21;;;;;;;4.30;1.58;;;19.70;66.30;;;;;;5051204;28;20557;-76
2022/09/23 09:19:00;;;;;;;6.97;2.10;;;19.70;66.00;;;;;;5042058;28;20094;-75
2022/09/23 09:21:38;;;;;;;5.35;2.00;;;19.70;65.70;;;;;;5046385;28;20045;-79
2022/09/23 09:24:15;;;;;;;3.95;1.02;;;19.70;65.30;;;;;;5050967;28;20477;-77
2022/09/23 09:26:41;;;;;;;4.72;0.85;;;19.70;65.10;;;;;;5055404;28;20097;-77
2022/09/23 09:29:15;;;;;;;6.28;1.00;;;19.70;65.10;;;;;;5066182;28;20044;-75
2022/09/23 09:31:47;;;;;;;5.40;1.10;;;19.60;64.70;;;;;;5069616;28;20021;-76
2022/09/23 09:34:21;;;;;;;5.68;0.93;;;19.60;64.60;;;;;;5047084;28;20167;-77
2022/09/23 09:37:17;;;;;;;4.63;1.23;;;19.50;64.40;;;;;;5052945;28;20124;-77
2022/09/23 09:39:44;;;;;;;5.28;1.30;;;19.40;64.10;;;;;;5052408;28;20084;-77
2022/09/23 09:42:23;;;;;;;5.63;1.33;;;19.40;64.40;;;;;;5052536;28;20037;-76
2022/09/23 09:44:59;;;;;;;2.95;0.95;;;19.30;64.20;;;;;;5043462;28;20025;-76
2022/09/23 09:47:50;;;;;;;2.65;0.93;;;19.20;64.10;;;;;;5044642;28;20033;-77
2022/09/23 09:50:37;;;;;;;7.07;1.88;;;19.20;64.10;;;;;;5045162;28;20079;-77
2022/09/23 09:53:24;;;;;;;5.43;1.30;;;19.20;64.20;;;;;;5044469;28;20037;-77
2022/09/23 09:56:07;;;;;;;3.08;0.80;;;19.30;64.20;;;;;;5044233;28;20049;-77
2022/09/23 09:58:39;;;;;;;2.67;1.02;;;19.30;63.90;;;;;;5047044;28;20021;-76
2022/09/23 10:01:06;;;;;;;6.97;1.23;;;19.30;63.80;;;;;;5040663;28;20103;-76
2022/09/23 10:03:38;;;;;;;5.25;1.42;;;19.40;63.80;;;;;;5040677;28;20053;-76
2022/09/23 10:06:24;;;;;;;4.25;1.50;;;19.40;63.60;;;;;;5044107;28;20263;-77
2022/09/23 10:09:07;;;;;;;4.80;1.10;;;19.40;63.50;;;;;;5022590;28;20377;-77
2022/09/23 10:11:33;;;;;;;3.80;1.05;;;19.30;63.30;;;;;;5027052;28;20035;-77
2022/09/23 10:14:17;;;;;;;1.85;0.70;;;19.30;63.40;;;;;;5041917;28;20021;-76
2022/09/23 10:16:46;;;;;;;5.13;1.55;;;19.30;63.20;;;;;;5042238;28;20033;-77
2022/09/23 10:19:25;;;;;;;4.10;1.17;;;19.30;63.20;;;;;;5042774;28;20501;-77
2022/09/23 10:21:55;;;;;;;4.63;1.67;;;19.30;62.90;;;;;;5048848;28;20142;-79
2022/09/23 10:24:31;;;;;;;3.03;1.00;;;19.30;62.90;;;;;;5043823;28;20044;-78
2022/09/23 10:27:10;;;;;;;2.28;0.93;;;19.30;62.80;;;;;;5050681;28;20040;-78
2022/09/23 10:29:47;;;;;;;4.07;1.30;;;19.40;62.90;;;;;;5049427;28;20387;-79
2022/09/23 10:32:19;;;;;;;3.90;1.35;;;19.40;62.70;;;;;;5050079;28;20154;-77
2022/09/23 10:34:50;;;;;;;3.50;1.20;;;19.50;62.60;;;;;;5050427;28;20029;-78
2022/09/23 10:37:25;;;;;;;4.10;1.63;;;19.60;62.50;;;;;;5049334;28;20032;-78
2022/09/23 10:48:59;;;;;;;5.55;1.98;;;19.80;61.90;;;;;;5038569;28;20028;-77
2022/09/23 10:51:37;;;;;;;4.30;1.45;;;19.80;61.60;;;;;;5031308;28;20044;-77
2022/09/23 10:54:06;;;;;;;5.10;1.90;;;19.80;61.70;;;;;;5049554;28;20029;-76
2022/09/23 10:56:47;;;;;;;8.48;2.05;;;19.90;61.60;;;;;;5032638;28;21292;-76
2022/09/23 10:59:28;;;;;;;7.00;2.17;;;19.90;61.50;;;;;;5040837;28;20029;-76
2022/09/23 11:02:01;;;;;;;4.03;1.83;;;19.90;61.20;;;;;;5032467;28;20064;-76
2022/09/23 11:04:57;;;;;;;5.00;1.95;;;19.90;61.20;;;;;;5036284;28;20040;-76
2022/09/23 11:07:44;;;;;;;2.85;1.80;;;19.90;60.80;;;;;;5046131;28;20045;-75
2022/09/23 11:10:48;;;;;;;3.42;1.73;;;19.90;60.80;;;;;;5012857;28;20025;-77
2022/09/23 11:13:40;;;;;;;2.20;1.70;;;19.90;60.50;;;;;;5028951;28;20442;-75
2022/09/23 11:16:25;;;;;;;5.22;2.13;;;19.90;60.60;;;;;;5040047;28;20041;-78
2022/09/23 11:19:31;;;;;;;4.25;2.15;;;19.90;60.40;;;;;;5045924;28;20378;-77
2022/09/23 11:22:04;;;;;;;5.38;2.35;;;19.90;60.20;;;;;;5040307;28;20041;-77
2022/09/23 11:24:51;;;;;;;6.05;2.88;;;19.90;60.30;;;;;;5035801;28;20138;-77
2022/09/23 11:27:30;;;;;;;8.48;3.25;;;19.80;59.80;;;;;;5045207;28;20033;-77
2022/09/23 11:30:08;;;;;;;5.82;3.17;;;19.80;59.80;;;;;;5038819;28;20145;-77
2022/09/23 11:32:56;;;;;;;8.80;3.67;;;19.80;59.80;;;;;;5033424;28;20027;-77
2022/09/23 11:35:32;;;;;;;5.47;3.28;;;19.90;59.90;;;;;;5043703;28;20029;-76
2022/09/23 11:38:24;;;;;;;9.07;4.05;;;19.80;59.70;;;;;;5046823;28;20028;-80
2022/09/23 11:41:22;;;;;;;5.10;3.75;;;19.80;59.50;;;;;;5045082;28;20223;-77
2022/09/23 11:44:10;;;;;;;6.90;3.20;;;19.90;59.60;;;;;;5045615;28;20377;-77
2022/09/23 11:46:48;;;;;;;5.93;3.35;;;19.90;59.50;;;;;;5051899;28;20089;-78
2022/09/23 11:49:50;;;;;;;6.65;3.78;;;19.90;59.50;;;;;;5037486;28;20500;-80
2022/09/23 11:52:32;;;;;;;6.03;4.00;;;20.00;59.50;;;;;;5026662;28;20056;-78
2022/09/23 11:55:19;;;;;;;4.47;3.67;;;20.00;59.50;;;;;;5045989;28;20388;-78
2022/09/23 11:57:51;;;;;;;5.68;3.50;;;20.00;59.30;;;;;;5044767;28;20029;-79
2022/09/23 12:00:23;;;;;;;5.90;3.40;;;20.00;59.20;;;;;;5040385;28;20102;-80
2022/09/23 12:03:10;;;;;;;7.53;4.13;;;20.10;59.20;;;;;;5036128;28;20053;-77
2022/09/23 12:06:13;;;;;;;3.83;3.40;;;20.10;58.90;;;;;;5030587;28;20055;-77
2022/09/23 12:08:39;;;;;;;4.88;3.00;;;20.20;58.80;;;;;;5025187;28;20051;-78
2022/09/23 12:11:23;;;;;;;5.50;3.45;;;20.20;58.80;;;;;;5012795;28;20393;-78
2022/09/23 12:14:20;;;;;;;9.05;3.33;;;20.20;58.50;;;;;;5040126;28;20044;-76
2022/09/23 12:17:26;;;;;;;4.30;3.90;;;20.30;58.60;;;;;;5046621;28;20040;-77
2022/09/23 12:20:30;;;;;;;9.60;4.22;;;20.30;58.50;;;;;;5035090;28;20029;-75
2022/09/23 12:23:14;;;;;;;15.32;4.35;;;20.40;58.50;;;;;;5047557;28;20040;-76
2022/09/23 12:25:49;;;;;;;4.20;3.53;;;20.40;58.50;;;;;;5048005;28;20033;-77
2022/09/23 12:28:21;;;;;;;5.38;3.60;;;20.50;58.40;;;;;;5050168;28;20021;-77
2022/09/23 12:30:52;;;;;;;4.85;3.55;;;20.50;58.20;;;;;;5051171;28;20385;-77
2022/09/23 12:33:23;;;;;;;3.58;3.17;;;20.50;58.00;;;;;;5049328;28;20033;-77
2022/09/23 12:35:52;;;;;;;4.40;3.63;;;20.60;58.00;;;;;;5052578;28;20044;-76
2022/09/23 12:38:35;;;;;;;3.97;3.58;;;20.60;57.70;;;;;;5052391;28;20020;-81
2022/09/23 12:41:34;;;;;;;3.78;3.15;;;20.70;57.70;;;;;;5037989;28;20055;-79
2022/09/23 12:44:22;;;;;;;4.10;2.97;;;20.70;57.30;;;;;;5033500;28;20389;-75
2022/09/23 12:47:24;;;;;;;3.33;3.00;;;20.90;57.30;;;;;;5046011;28;20049;-81
2022/09/23 12:49:52;;;;;;;4.07;2.50;;;20.90;57.00;;;;;;5014497;28;20046;-80
2022/09/23 12:52:17;;;;;;;3.03;2.30;;;20.90;56.80;;;;;;5023028;28;20049;-80
2022/09/23 12:54:48;;;;;;;4.25;2.50;;;20.90;56.40;;;;;;5051423;28;20051;-82
2022/09/23 12:57:33;;;;;;;3.00;2.65;;;20.90;55.80;;;;;;5051836;28;20044;-82
2022/09/23 13:00:14;;;;;;;2.50;2.30;;;20.90;55.30;;;;;;5052923;28;20033;-84
2022/09/23 13:06:37;;;;;;;6.82;2.33;;;20.90;55.10;;;;;;5046427;28;20021;-81
2022/09/23 13:08:47;;;;;;;5.32;2.38;;;20.90;55.30;;;;;;5048990;28;20037;-76
2022/09/23 13:11:35;;;;;;;3.15;1.83;;;20.90;54.60;;;;;;5049497;28;20025;-78
2022/09/23 13:14:03;;;;;;;2.50;2.17;;;21.00;54.00;;;;;;5051454;28;20212;-77
2022/09/23 13:16:39;;;;;;;2.63;2.08;;;21.00;54.20;;;;;;5046639;28;20063;-80
2022/09/23 13:19:25;;;;;;;3.78;2.60;;;21.10;54.00;;;;;;5018750;28;20093;-77
2022/09/23 13:21:58;;;;;;;2.88;2.03;;;21.20;53.50;;;;;;5043022;28;20045;-77
2022/09/23 13:24:27;;;;;;;4.43;2.00;;;21.40;53.90;;;;;;5052598;28;20041;-78
2022/09/23 13:26:56;;;;;;;4.45;3.17;;;21.50;53.80;;;;;;5037387;28;20031;-78
2022/09/23 13:29:32;;;;;;;2.28;1.98;;;21.70;53.70;;;;;;5051752;28;20031;-80
2022/09/23 13:31:59;;;;;;;3.50;2.00;;;21.80;53.40;;;;;;5038212;28;20038;-79